Time;durP1;ratioP1;P1;durP2;ratioP2;P2;SDS_P1;SDS_P2;PMS_P1;PMS_P2;Temp;Humidity;BMP_temperature;BMP_pressure;BME280_temperature;BME280_humidity;BME280_pressure;Samples;Min_cycle;Max_cycle;Signal;HPM_P1;HPM_P2
2022/09/08 00:00:56;;;;;;;2.38;1.50;;;13.30;77.30;;;;;;5024266;28;20048;-77
2022/09/08 00:03:25;;;;;;;1.92;1.38;;;13.30;77.30;;;;;;5022202;28;20080;-77
2022/09/08 00:05:59;;;;;;;1.20;1.10;;;13.30;77.40;;;;;;5022831;28;20049;-76
2022/09/08 00:08:27;;;;;;;1.30;1.20;;;13.30;77.40;;;;;;5036727;28;20511;-77
2022/09/08 00:10:56;;;;;;;1.58;1.25;;;13.30;77.30;;;;;;5019009;28;20067;-77
2022/09/08 00:13:23;;;;;;;0.85;0.85;;;13.30;77.40;;;;;;5020637;28;20412;-77
2022/09/08 00:15:49;;;;;;;1.25;0.90;;;13.30;77.30;;;;;;5052232;28;20124;-77
2022/09/08 00:18:16;;;;;;;1.33;1.23;;;13.30;77.30;;;;;;5019463;28;20569;-77
2022/09/08 00:20:42;;;;;;;1.33;1.20;;;13.30;77.20;;;;;;5022729;28;20120;-76
2022/09/08 00:23:08;;;;;;;1.30;1.20;;;13.30;77.10;;;;;;5020650;28;20093;-76
2022/09/08 00:25:34;;;;;;;1.30;1.20;;;13.30;77.10;;;;;;5018855;28;20041;-76
2022/09/08 00:28:00;;;;;;;0.80;0.80;;;13.30;77.10;;;;;;5021416;28;20121;-77
2022/09/08 00:30:26;;;;;;;1.40;0.90;;;13.30;77.20;;;;;;5053104;28;20029;-76
2022/09/08 00:32:52;;;;;;;1.20;0.73;;;13.30;77.10;;;;;;5037497;28;20091;-76
2022/09/08 00:35:18;;;;;;;0.90;0.90;;;13.30;77.20;;;;;;5020216;28;20463;-77
2022/09/08 00:37:48;;;;;;;1.17;0.82;;;13.30;77.10;;;;;;5020753;28;20069;-77
2022/09/08 00:40:15;;;;;;;1.95;0.82;;;13.30;77.10;;;;;;5020774;28;20389;-77
2022/09/08 00:42:42;;;;;;;0.73;0.73;;;13.30;77.10;;;;;;5053597;28;20037;-76
2022/09/08 00:45:12;;;;;;;1.58;0.80;;;13.30;77.00;;;;;;5021744;28;20164;-77
2022/09/08 00:47:50;;;;;;;0.90;0.90;;;13.30;77.00;;;;;;5037218;28;20033;-76
2022/09/08 00:50:24;;;;;;;1.70;0.82;;;13.30;77.00;;;;;;5041534;28;20046;-77
2022/09/08 00:53:00;;;;;;;1.33;0.70;;;13.30;77.00;;;;;;5022405;28;20091;-75
2022/09/08 00:55:33;;;;;;;0.90;0.90;;;13.30;77.00;;;;;;5020752;28;20811;-78
2022/09/08 00:57:58;;;;;;;0.70;0.70;;;13.30;77.60;;;;;;5035751;28;20398;-77
2022/09/08 01:00:25;;;;;;;1.00;0.90;;;13.20;77.00;;;;;;5019639;28;20060;-78
2022/09/08 01:02:51;;;;;;;0.70;0.70;;;13.20;77.00;;;;;;5037873;28;20053;-78
2022/09/08 01:05:28;;;;;;;0.85;0.80;;;13.20;77.00;;;;;;5022355;28;20460;-78
2022/09/08 01:14:14;;;;;;;0.80;0.80;;;13.20;77.00;;;;;;5004192;28;20068;-79
2022/09/08 01:16:46;;;;;;;1.13;0.70;;;13.20;76.90;;;;;;5021398;28;20096;-79
2022/09/08 01:19:26;;;;;;;0.85;0.68;;;13.20;76.90;;;;;;5007872;28;20362;-78
2022/09/08 01:22:26;;;;;;;1.58;0.80;;;13.20;77.00;;;;;;5022320;28;20497;-79
2022/09/08 01:25:37;;;;;;;2.47;0.90;;;13.20;77.00;;;;;;5025753;28;20041;-78
2022/09/08 01:28:19;;;;;;;1.92;0.93;;;13.20;77.00;;;;;;5016293;28;20045;-78
2022/09/08 01:30:46;;;;;;;0.90;0.90;;;13.20;77.00;;;;;;5023131;28;20049;-78
2022/09/08 01:33:14;;;;;;;1.70;0.88;;;13.20;77.00;;;;;;4987141;28;20522;-78
2022/09/08 01:35:41;;;;;;;1.33;1.10;;;13.20;77.00;;;;;;5005558;28;20029;-78
2022/09/08 01:38:08;;;;;;;1.20;1.10;;;13.20;77.00;;;;;;5016595;28;20568;-79
2022/09/08 01:40:36;;;;;;;1.23;1.13;;;13.20;77.00;;;;;;5007092;28;20092;-80
2022/09/08 01:43:02;;;;;;;0.80;0.80;;;13.20;77.00;;;;;;5020209;28;20548;-81
2022/09/08 01:45:28;;;;;;;1.05;1.05;;;13.20;77.00;;;;;;5008370;28;20029;-77
2022/09/08 01:47:54;;;;;;;1.30;1.20;;;13.20;77.00;;;;;;5008069;28;20129;-79
2022/09/08 01:50:20;;;;;;;1.08;0.98;;;13.20;77.00;;;;;;5026110;28;20026;-79
2022/09/08 01:52:47;;;;;;;1.15;1.10;;;13.10;77.00;;;;;;5024283;28;20185;-78
2022/09/08 01:55:13;;;;;;;2.05;1.20;;;13.20;77.10;;;;;;5024827;28;20029;-79
2022/09/08 01:57:39;;;;;;;1.77;1.33;;;13.10;77.50;;;;;;5024479;28;20428;-77
2022/09/08 02:00:06;;;;;;;2.33;1.50;;;13.10;77.00;;;;;;5022598;28;20069;-77
2022/09/08 02:02:33;;;;;;;1.52;1.42;;;13.20;76.90;;;;;;5006946;28;20033;-79
2022/09/08 02:04:59;;;;;;;1.58;1.48;;;13.10;76.90;;;;;;5024060;28;20030;-78
2022/09/08 02:07:25;;;;;;;1.27;1.27;;;13.10;77.00;;;;;;5024246;28;20053;-78
2022/09/08 02:09:52;;;;;;;1.55;1.45;;;13.10;77.00;;;;;;5056952;28;20041;-77
2022/09/08 02:12:18;;;;;;;1.95;1.75;;;13.10;76.90;;;;;;5023186;28;20037;-77
2022/09/08 02:14:44;;;;;;;1.88;1.77;;;13.10;77.00;;;;;;5021805;28;20041;-76
2022/09/08 02:17:11;;;;;;;1.70;1.60;;;13.10;77.00;;;;;;5056461;28;20026;-76
2022/09/08 02:19:37;;;;;;;1.85;1.75;;;13.10;76.90;;;;;;5038360;28;20032;-77
2022/09/08 02:22:03;;;;;;;2.80;2.10;;;13.10;76.90;;;;;;5056385;28;20037;-75
2022/09/08 02:24:29;;;;;;;2.30;2.10;;;13.20;76.90;;;;;;5022865;28;20033;-79
2022/09/08 02:26:55;;;;;;;2.42;2.22;;;13.10;76.80;;;;;;5024503;28;20046;-79
2022/09/08 02:29:22;;;;;;;2.28;2.08;;;13.10;76.80;;;;;;5021990;28;20053;-76
2022/09/08 02:31:48;;;;;;;2.20;2.00;;;13.10;76.80;;;;;;5023516;28;20034;-79
2022/09/08 02:34:14;;;;;;;2.67;2.47;;;13.10;76.70;;;;;;5022333;28;20033;-76
2022/09/08 02:36:40;;;;;;;2.03;1.90;;;13.10;76.70;;;;;;5022881;28;20030;-75
2022/09/08 02:39:06;;;;;;;3.75;2.10;;;13.10;76.70;;;;;;5027000;28;20044;-77
2022/09/08 02:41:31;;;;;;;3.35;2.55;;;13.10;76.80;;;;;;5023627;28;20044;-75
2022/09/08 02:43:57;;;;;;;2.60;2.40;;;13.10;76.80;;;;;;5022586;28;20096;-75
2022/09/08 02:46:24;;;;;;;2.65;2.42;;;13.10;77.40;;;;;;5023067;28;20041;-76
2022/09/08 02:48:50;;;;;;;2.50;2.30;;;13.10;76.90;;;;;;5054335;28;20068;-75
2022/09/08 02:51:19;;;;;;;3.10;2.72;;;13.10;77.00;;;;;;5053200;28;20070;-76
2022/09/08 02:53:46;;;;;;;2.20;2.00;;;13.10;77.00;;;;;;5026154;28;20098;-76
2022/09/08 02:56:11;;;;;;;2.60;2.40;;;13.00;77.00;;;;;;5023471;28;20063;-76
2022/09/08 02:58:38;;;;;;;3.17;2.63;;;13.10;77.10;;;;;;5021054;28;20037;-77
2022/09/08 03:01:05;;;;;;;4.68;2.38;;;13.10;77.10;;;;;;5024243;28;20037;-77
2022/09/08 03:03:31;;;;;;;2.40;2.20;;;13.00;77.00;;;;;;5019860;28;20034;-76
2022/09/08 03:05:57;;;;;;;2.45;2.25;;;13.00;77.10;;;;;;5023194;28;20571;-76
2022/09/08 03:08:24;;;;;;;4.43;2.40;;;13.00;77.10;;;;;;5053987;28;20064;-76
2022/09/08 03:10:50;;;;;;;2.20;2.00;;;13.00;77.00;;;;;;5021312;28;20030;-75
2022/09/08 03:13:17;;;;;;;2.25;2.00;;;13.00;77.00;;;;;;5021650;28;20026;-75
2022/09/08 03:15:44;;;;;;;2.03;1.92;;;13.00;77.00;;;;;;5052007;28;20516;-77
2022/09/08 03:18:10;;;;;;;2.20;2.00;;;13.00;77.00;;;;;;5020921;28;20034;-76
2022/09/08 03:20:38;;;;;;;2.33;2.00;;;13.00;77.00;;;;;;5054051;28;20037;-76
2022/09/08 03:23:05;;;;;;;2.30;2.05;;;13.00;77.00;;;;;;5021193;28;20178;-76
2022/09/08 03:25:35;;;;;;;2.10;1.90;;;13.00;77.00;;;;;;5019064;28;20433;-75
2022/09/08 03:28:03;;;;;;;2.70;1.95;;;13.00;76.90;;;;;;5030075;28;20025;-78
2022/09/08 03:30:29;;;;;;;1.60;1.50;;;13.00;77.00;;;;;;5022744;28;20033;-77
2022/09/08 03:32:54;;;;;;;1.55;1.45;;;13.00;76.90;;;;;;5055165;28;20033;-76
2022/09/08 03:35:20;;;;;;;1.80;1.70;;;13.00;76.60;;;;;;5058117;28;20025;-76
2022/09/08 03:37:48;;;;;;;2.05;1.58;;;13.00;76.50;;;;;;5025347;28;20126;-75
2022/09/08 03:40:16;;;;;;;1.70;1.55;;;13.00;76.40;;;;;;5024681;28;20056;-75
2022/09/08 03:42:43;;;;;;;1.92;1.30;;;13.00;76.50;;;;;;5022356;28;20057;-74
2022/09/08 03:45:13;;;;;;;2.20;1.52;;;13.00;76.40;;;;;;5020753;28;20037;-74
2022/09/08 03:47:39;;;;;;;1.33;1.23;;;13.00;76.50;;;;;;5020461;28;20033;-74
2022/09/08 03:50:05;;;;;;;2.35;1.60;;;13.00;76.30;;;;;;5053708;28;20043;-77
2022/09/08 03:52:32;;;;;;;1.73;1.60;;;13.00;76.30;;;;;;5053651;28;20055;-78
2022/09/08 03:54:58;;;;;;;2.20;1.38;;;13.00;76.20;;;;;;5022867;28;20048;-77
2022/09/08 03:57:26;;;;;;;2.33;1.50;;;13.00;76.20;;;;;;5019837;28;20037;-78
2022/09/08 03:59:56;;;;;;;2.03;1.60;;;13.00;76.30;;;;;;5035348;28;20034;-79
2022/09/08 04:02:23;;;;;;;1.50;1.40;;;13.00;76.20;;;;;;5020508;28;20037;-74
2022/09/08 04:04:55;;;;;;;2.05;1.63;;;13.00;76.20;;;;;;5017585;28;20619;-72
2022/09/08 04:07:23;;;;;;;1.48;1.30;;;13.00;76.10;;;;;;5023146;28;20534;-73
2022/09/08 04:09:50;;;;;;;1.70;1.50;;;13.00;76.10;;;;;;5018250;28;20052;-74
2022/09/08 04:12:16;;;;;;;1.70;1.60;;;13.00;76.10;;;;;;5018496;28;20488;-74
2022/09/08 04:14:42;;;;;;;2.22;1.55;;;13.10;76.10;;;;;;5020467;28;20037;-75
2022/09/08 04:17:09;;;;;;;1.35;1.17;;;13.00;76.70;;;;;;5021109;28;20480;-73
2022/09/08 04:19:35;;;;;;;1.77;1.27;;;13.10;76.20;;;;;;5019959;28;20069;-76
2022/09/08 04:22:01;;;;;;;3.13;1.55;;;13.00;76.10;;;;;;5029773;28;20115;-75
2022/09/08 04:24:29;;;;;;;1.25;1.25;;;13.10;75.90;;;;;;5039103;28;20037;-76
2022/09/08 04:26:55;;;;;;;1.50;1.40;;;13.00;75.70;;;;;;5048463;28;20033;-74
2022/09/08 04:29:22;;;;;;;2.78;1.60;;;13.00;75.50;;;;;;5016017;28;20480;-73
2022/09/08 04:31:49;;;;;;;1.42;1.30;;;13.10;75.50;;;;;;5033362;28;20586;-73
2022/09/08 04:34:15;;;;;;;1.55;1.42;;;13.10;75.30;;;;;;5036385;28;20037;-74
2022/09/08 04:36:42;;;;;;;2.58;1.63;;;13.10;75.20;;;;;;5063355;28;20034;-74
2022/09/08 04:39:09;;;;;;;1.80;1.58;;;13.10;75.30;;;;;;5038781;28;20025;-75
2022/09/08 04:41:35;;;;;;;2.13;1.27;;;13.10;75.30;;;;;;5030258;28;20029;-72
2022/09/08 04:44:03;;;;;;;2.97;1.60;;;13.10;75.20;;;;;;5038605;28;20124;-73
2022/09/08 04:46:31;;;;;;;1.92;1.35;;;13.10;75.30;;;;;;5044412;28;20459;-70
2022/09/08 04:48:58;;;;;;;1.48;1.38;;;13.10;75.30;;;;;;5053708;28;20033;-72
2022/09/08 04:51:25;;;;;;;1.38;1.13;;;13.10;75.30;;;;;;5019465;28;20512;-73
2022/09/08 04:53:52;;;;;;;1.52;1.35;;;13.20;75.20;;;;;;5020531;28;20491;-72
2022/09/08 04:56:19;;;;;;;1.70;1.55;;;13.10;75.10;;;;;;5019756;28;20069;-70
2022/09/08 04:58:46;;;;;;;1.95;1.63;;;13.10;74.90;;;;;;5020849;28;20037;-73
2022/09/08 05:01:18;;;;;;;1.60;1.50;;;13.10;74.60;;;;;;5053535;28;20128;-73
2022/09/08 05:03:46;;;;;;;1.73;1.30;;;13.10;74.50;;;;;;5019728;28;20037;-72
2022/09/08 05:06:16;;;;;;;1.42;1.33;;;13.10;74.40;;;;;;5034609;28;20064;-71
2022/09/08 05:08:44;;;;;;;1.73;1.63;;;13.10;74.30;;;;;;5020692;28;20029;-72
2022/09/08 05:11:10;;;;;;;1.60;1.50;;;13.10;74.40;;;;;;5018216;28;20034;-72
2022/09/08 05:13:37;;;;;;;1.55;1.45;;;13.10;74.40;;;;;;5050039;28;20041;-72
2022/09/08 05:16:11;;;;;;;3.22;1.70;;;13.10;74.50;;;;;;5022661;28;20032;-72
2022/09/08 05:18:38;;;;;;;1.77;1.50;;;13.10;74.60;;;;;;5020515;28;20038;-72
2022/09/08 05:21:06;;;;;;;1.88;1.70;;;13.10;74.70;;;;;;5021714;28;20272;-72
2022/09/08 05:23:32;;;;;;;2.80;2.00;;;13.20;75.10;;;;;;5020927;28;20022;-72
2022/09/08 05:26:06;;;;;;;2.20;2.00;;;13.20;75.20;;;;;;5018201;28;20394;-72
2022/09/08 05:28:35;;;;;;;2.88;1.92;;;13.20;75.30;;;;;;5036137;28;20546;-72
2022/09/08 05:31:01;;;;;;;1.80;1.70;;;13.20;75.50;;;;;;5021909;28;20095;-72
2022/09/08 05:33:27;;;;;;;2.40;2.20;;;13.20;75.50;;;;;;5006401;28;20121;-72
2022/09/08 05:35:54;;;;;;;2.10;1.85;;;13.20;75.60;;;;;;5019738;28;20536;-72
2022/09/08 05:38:20;;;;;;;2.40;2.20;;;13.20;75.70;;;;;;5021794;28;20077;-72
2022/09/08 05:40:46;;;;;;;2.85;2.00;;;13.20;75.80;;;;;;5023711;28;20447;-72
2022/09/08 05:43:13;;;;;;;1.75;1.65;;;13.30;75.70;;;;;;5022274;28;20041;-72
2022/09/08 05:45:47;;;;;;;2.40;2.20;;;13.20;75.50;;;;;;5055916;28;20128;-72
2022/09/08 05:48:13;;;;;;;2.47;2.08;;;13.30;75.60;;;;;;5021739;28;20090;-72
2022/09/08 05:50:44;;;;;;;3.03;2.28;;;13.30;76.30;;;;;;5022988;28;20129;-73
2022/09/08 05:53:10;;;;;;;2.92;2.17;;;13.30;76.60;;;;;;5055332;28;20481;-71
2022/09/08 05:55:36;;;;;;;2.28;2.05;;;13.30;76.30;;;;;;5022778;28;20034;-72
2022/09/08 05:58:03;;;;;;;2.33;2.10;;;13.40;76.10;;;;;;5022469;28;20136;-72
2022/09/08 06:00:29;;;;;;;2.65;2.08;;;13.40;75.80;;;;;;5025284;28;20048;-72
2022/09/08 06:02:54;;;;;;;2.97;2.38;;;13.40;75.70;;;;;;5025484;28;20025;-71
2022/09/08 06:05:22;;;;;;;2.63;2.15;;;13.40;75.50;;;;;;5024503;28;20164;-72
2022/09/08 06:07:49;;;;;;;2.60;2.40;;;13.50;75.60;;;;;;5024214;28;20046;-72
2022/09/08 06:10:16;;;;;;;2.08;1.95;;;13.50;75.30;;;;;;5025856;28;20534;-72
2022/09/08 06:12:42;;;;;;;2.50;2.30;;;13.50;75.30;;;;;;5023787;28;20030;-72
2022/09/08 06:15:09;;;;;;;3.25;2.10;;;13.50;75.40;;;;;;5022988;28;20034;-72
2022/09/08 06:17:36;;;;;;;2.72;2.10;;;13.50;75.30;;;;;;5021559;28;20156;-73
2022/09/08 06:20:03;;;;;;;3.67;2.28;;;13.50;75.40;;;;;;5024664;28;20045;-72
2022/09/08 06:22:32;;;;;;;2.65;1.90;;;13.50;75.40;;;;;;5021598;28;20408;-72
2022/09/08 06:24:58;;;;;;;3.63;2.10;;;13.50;75.10;;;;;;5021937;28;20099;-72
2022/09/08 06:27:30;;;;;;;2.40;2.20;;;13.40;75.40;;;;;;5021090;28;20037;-72
2022/09/08 06:30:11;;;;;;;2.67;2.20;;;13.40;75.30;;;;;;5022697;28;20116;-72
2022/09/08 06:32:43;;;;;;;4.85;2.22;;;13.50;75.30;;;;;;5055383;28;20124;-72
2022/09/08 06:35:12;;;;;;;2.22;1.77;;;13.50;75.00;;;;;;5021170;28;20049;-72
2022/09/08 06:37:42;;;;;;;2.75;2.05;;;13.40;75.30;;;;;;5021323;28;20033;-72
2022/09/08 06:40:08;;;;;;;2.25;2.05;;;13.50;75.10;;;;;;5023014;28;20091;-72
2022/09/08 06:43:07;;;;;;;3.88;2.15;;;13.50;74.60;;;;;;5021723;28;20042;-72
2022/09/08 06:45:42;;;;;;;2.70;2.20;;;13.50;75.00;;;;;;5029269;28;20177;-72
2022/09/08 06:48:17;;;;;;;2.47;2.10;;;13.50;75.00;;;;;;5033116;28;20034;-72
2022/09/08 06:51:01;;;;;;;2.40;2.20;;;13.50;75.30;;;;;;5030183;28;20516;-71
2022/09/08 06:53:38;;;;;;;2.33;2.13;;;13.50;75.60;;;;;;5065234;28;20314;-71
2022/09/08 06:56:20;;;;;;;2.08;1.88;;;13.50;75.90;;;;;;5049305;28;20125;-73
2022/09/08 06:58:47;;;;;;;2.20;1.63;;;13.50;75.90;;;;;;5025941;28;20037;-71
2022/09/08 07:01:28;;;;;;;2.80;1.90;;;13.50;76.00;;;;;;5021454;28;20036;-72
2022/09/08 07:04:17;;;;;;;3.05;1.92;;;13.40;75.80;;;;;;5022280;28;20041;-71
2022/09/08 07:06:58;;;;;;;1.80;1.65;;;13.40;75.90;;;;;;5023673;28;20053;-72
2022/09/08 07:09:30;;;;;;;3.28;1.35;;;13.50;75.90;;;;;;5024685;28;20116;-72
2022/09/08 07:12:17;;;;;;;2.33;1.48;;;13.50;75.50;;;;;;5024024;28;20034;-73
2022/09/08 07:14:53;;;;;;;1.55;1.30;;;13.50;75.30;;;;;;5053876;28;20112;-71
2022/09/08 07:17:49;;;;;;;1.52;1.42;;;13.60;74.80;;;;;;5022751;28;20033;-72
2022/09/08 07:20:15;;;;;;;1.90;1.30;;;13.60;74.70;;;;;;5020289;28;20037;-72
2022/09/08 07:22:56;;;;;;;1.50;1.40;;;13.60;74.90;;;;;;5022460;28;20053;-71
2022/09/08 07:25:28;;;;;;;1.63;1.40;;;13.60;74.60;;;;;;5054447;28;20049;-71
2022/09/08 07:28:32;;;;;;;1.63;1.52;;;13.60;74.60;;;;;;5021327;28;20038;-70
2022/09/08 07:31:02;;;;;;;1.70;1.60;;;13.60;74.30;;;;;;5024139;28;20042;-71
2022/09/08 07:33:37;;;;;;;1.75;1.40;;;13.60;74.30;;;;;;5024783;28;20128;-71
2022/09/08 07:36:10;;;;;;;1.30;1.20;;;13.70;74.40;;;;;;5024803;28;20041;-72
2022/09/08 07:38:49;;;;;;;2.83;1.42;;;13.70;74.20;;;;;;5024409;28;20038;-71
2022/09/08 07:41:34;;;;;;;1.50;1.40;;;13.70;74.40;;;;;;5024397;28;20032;-72
2022/09/08 07:44:05;;;;;;;3.28;1.95;;;13.70;74.60;;;;;;5028401;28;20037;-72
2022/09/08 07:46:51;;;;;;;1.40;1.30;;;13.60;73.30;;;;;;5013049;28;20041;-72
2022/09/08 07:49:36;;;;;;;2.35;1.70;;;13.70;73.20;;;;;;5021501;28;20040;-72
2022/09/08 07:52:23;;;;;;;1.83;1.30;;;13.70;73.60;;;;;;5028164;28;20052;-72
2022/09/08 07:55:03;;;;;;;2.80;1.63;;;13.70;73.40;;;;;;5029305;28;20263;-71
2022/09/08 07:57:52;;;;;;;2.00;1.80;;;13.70;73.40;;;;;;5023253;28;20463;-72
2022/09/08 08:00:46;;;;;;;2.72;1.92;;;13.80;73.70;;;;;;5023449;28;20025;-71
2022/09/08 08:03:21;;;;;;;1.88;1.77;;;13.80;73.30;;;;;;5022839;28;20583;-72
2022/09/08 08:06:11;;;;;;;1.75;1.63;;;13.80;73.10;;;;;;5019129;28;20041;-72
2022/09/08 08:08:46;;;;;;;2.00;1.77;;;13.80;72.80;;;;;;5021815;28;20042;-71
2022/09/08 08:11:21;;;;;;;5.07;2.80;;;13.80;72.40;;;;;;5049753;28;20487;-72
2022/09/08 08:13:54;;;;;;;;;;;13.70;72.70;;;;;;5034908;28;20393;-71
2022/09/08 08:16:35;;;;;;;2.22;2.03;;;13.70;72.60;;;;;;5019468;28;20486;-72
2022/09/08 08:19:38;;;;;;;3.13;1.98;;;13.70;72.90;;;;;;5020078;28;20048;-72
2022/09/08 08:22:22;;;;;;;3.72;1.92;;;13.70;72.80;;;;;;5020618;28;20107;-72
2022/09/08 08:25:01;;;;;;;1.98;1.75;;;13.70;72.80;;;;;;5021718;28;20037;-72
2022/09/08 08:27:27;;;;;;;2.78;1.70;;;13.80;72.50;;;;;;5021915;28;20034;-72
2022/09/08 08:30:04;;;;;;;1.70;1.60;;;13.70;72.30;;;;;;5019284;28;20033;-71
2022/09/08 08:32:35;;;;;;;2.58;1.52;;;13.70;72.20;;;;;;5021029;28;20436;-71
2022/09/08 08:35:18;;;;;;;1.75;1.65;;;13.70;72.10;;;;;;5020406;28;20045;-71
2022/09/08 08:37:49;;;;;;;1.60;1.50;;;13.60;71.80;;;;;;5019335;28;20520;-71
2022/09/08 08:40:48;;;;;;;1.50;1.40;;;13.60;71.90;;;;;;5020849;28;20041;-71
2022/09/08 08:43:20;;;;;;;2.75;1.35;;;13.50;71.60;;;;;;5019922;28;20046;-71
2022/09/08 08:46:22;;;;;;;1.33;1.23;;;13.60;72.00;;;;;;5019365;28;20537;-71
2022/09/08 08:49:15;;;;;;;1.30;1.15;;;13.70;72.50;;;;;;5037013;28;20044;-72
2022/09/08 08:52:28;;;;;;;1.63;1.08;;;13.70;72.60;;;;;;5019155;28;20037;-72
2022/09/08 08:55:10;;;;;;;1.42;1.02;;;13.70;72.40;;;;;;5007917;28;20112;-71
2022/09/08 08:57:53;;;;;;;2.28;1.27;;;13.80;72.30;;;;;;5036485;28;20056;-70
2022/09/08 09:00:27;;;;;;;1.10;1.00;;;13.80;72.50;;;;;;5025902;28;20079;-71
2022/09/08 09:02:56;;;;;;;0.80;0.77;;;13.90;71.50;;;;;;5036622;28;20052;-71
2022/09/08 09:05:42;;;;;;;0.95;0.82;;;14.00;71.10;;;;;;5021336;28;20052;-71
2022/09/08 09:08:29;;;;;;;3.08;1.08;;;14.10;70.60;;;;;;5036440;28;20057;-71
2022/09/08 09:10:55;;;;;;;1.40;1.10;;;14.20;71.30;;;;;;5038074;28;20561;-72
2022/09/08 09:13:33;;;;;;;1.33;0.90;;;14.20;71.20;;;;;;5038092;28;20083;-72
2022/09/08 09:16:08;;;;;;;1.10;1.00;;;14.30;71.40;;;;;;5036769;28;20098;-71
2022/09/08 09:18:46;;;;;;;;;;;14.40;71.10;;;;;;5038398;28;20033;-72
2022/09/08 09:21:33;;;;;;;2.90;1.17;;;14.30;69.50;;;;;;5035624;28;20693;-71
2022/09/08 09:24:21;;;;;;;1.20;1.10;;;14.20;69.20;;;;;;5038270;28;20036;-72
2022/09/08 09:26:50;;;;;;;1.27;1.10;;;14.20;69.90;;;;;;5039142;28;20063;-72
2022/09/08 09:29:26;;;;;;;1.27;0.95;;;14.20;70.30;;;;;;5035458;28;20116;-72
2022/09/08 09:32:21;;;;;;;1.48;1.08;;;14.20;69.90;;;;;;5019397;28;20029;-71
2022/09/08 09:35:08;;;;;;;1.50;1.40;;;14.10;69.60;;;;;;5051859;28;20025;-72
2022/09/08 09:38:10;;;;;;;2.67;1.40;;;14.20;70.10;;;;;;5018235;28;20033;-72
2022/09/08 09:40:39;;;;;;;1.48;1.20;;;14.10;70.20;;;;;;5033698;28;20029;-71
2022/09/08 09:43:37;;;;;;;3.63;1.60;;;14.10;70.50;;;;;;5051842;28;20033;-72
2022/09/08 09:46:25;;;;;;;1.50;1.40;;;14.10;70.60;;;;;;5018979;28;20524;-71
2022/09/08 09:49:22;;;;;;;2.47;1.15;;;14.20;70.80;;;;;;5020064;28;20033;-70
2022/09/08 09:52:12;;;;;;;1.45;1.30;;;14.20;71.10;;;;;;5020116;28;20556;-71
2022/09/08 09:54:47;;;;;;;2.03;1.25;;;14.20;71.20;;;;;;5018405;28;20034;-71
2022/09/08 09:57:22;;;;;;;2.83;1.30;;;14.20;71.50;;;;;;5052190;28;20052;-71
2022/09/08 10:00:00;;;;;;;1.42;1.33;;;14.20;71.40;;;;;;5029388;28;20586;-71
2022/09/08 10:03:07;;;;;;;3.20;1.00;;;14.20;71.60;;;;;;5030469;28;20043;-71
2022/09/08 10:05:45;;;;;;;2.15;1.17;;;14.20;71.20;;;;;;5015997;28;20052;-71
2022/09/08 10:08:30;;;;;;;1.98;1.20;;;14.20;71.30;;;;;;5022938;28;20038;-71
2022/09/08 10:11:20;;;;;;;2.13;1.00;;;14.20;71.30;;;;;;5041628;28;20468;-71
2022/09/08 10:14:24;;;;;;;0.85;0.85;;;14.20;70.40;;;;;;5028356;28;20111;-71
2022/09/08 10:17:26;;;;;;;3.20;0.88;;;14.30;70.60;;;;;;5028319;28;20511;-72
2022/09/08 10:20:19;;;;;;;1.00;0.82;;;14.30;70.90;;;;;;5020121;28;20096;-72
2022/09/08 10:22:54;;;;;;;1.73;1.00;;;14.30;70.90;;;;;;5017998;28;20052;-72
2022/09/08 10:25:57;;;;;;;1.73;0.80;;;14.30;70.80;;;;;;5020150;28;20196;-71
2022/09/08 10:28:41;;;;;;;9.13;1.40;;;14.40;71.60;;;;;;5023990;28;20065;-75
2022/09/08 10:31:44;;;;;;;1.77;1.08;;;14.30;70.80;;;;;;5042201;28;20039;-74
2022/09/08 10:34:25;;;;;;;1.27;0.90;;;14.30;70.60;;;;;;5013448;28;20029;-74
2022/09/08 10:37:15;;;;;;;0.95;0.90;;;14.30;70.60;;;;;;5047165;28;20037;-74
2022/09/08 10:39:45;;;;;;;0.80;0.80;;;14.30;70.20;;;;;;5032937;28;20044;-75
2022/09/08 10:42:20;;;;;;;1.75;1.45;;;14.30;70.00;;;;;;5027332;28;20034;-74
2022/09/08 10:45:04;;;;;;;2.53;1.00;;;14.30;69.30;;;;;;5016448;28;20029;-74
2022/09/08 10:47:48;;;;;;;1.35;0.90;;;14.30;69.10;;;;;;5045745;28;20087;-75
2022/09/08 10:50:28;;;;;;;1.58;1.00;;;14.20;69.30;;;;;;5037139;28;20037;-75
2022/09/08 10:53:33;;;;;;;1.58;1.00;;;14.30;69.30;;;;;;5031227;28;20040;-74
2022/09/08 10:55:59;;;;;;;3.22;1.05;;;14.30;70.00;;;;;;5037467;28;20523;-74
2022/09/08 10:58:35;;;;;;;1.30;1.20;;;14.30;70.00;;;;;;5025194;28;20053;-75
2022/09/08 11:01:36;;;;;;;1.70;0.98;;;14.30;70.40;;;;;;5021523;28;20041;-74
2022/09/08 11:04:21;;;;;;;0.93;0.82;;;14.30;70.40;;;;;;5019746;28;20411;-74
2022/09/08 11:07:20;;;;;;;1.20;1.10;;;14.30;70.50;;;;;;5023309;28;20538;-74
2022/09/08 11:10:28;;;;;;;1.08;0.90;;;14.40;70.60;;;;;;5022216;28;20542;-74
2022/09/08 11:13:06;;;;;;;2.00;1.15;;;14.40;70.70;;;;;;5037974;28;20037;-74
2022/09/08 11:15:53;;;;;;;1.20;1.10;;;14.40;70.30;;;;;;5022060;28;20034;-74
2022/09/08 11:18:28;;;;;;;0.90;0.90;;;14.40;70.10;;;;;;5036371;28;20030;-74
2022/09/08 11:21:09;;;;;;;1.45;1.10;;;14.50;70.40;;;;;;5037899;28;20124;-73
2022/09/08 11:23:56;;;;;;;1.20;1.10;;;14.50;70.40;;;;;;5038916;28;20044;-74
2022/09/08 11:26:30;;;;;;;3.40;1.63;;;14.50;70.40;;;;;;5042567;28;20045;-74
2022/09/08 11:29:35;;;;;;;1.13;0.95;;;14.50;70.10;;;;;;5025640;28;20030;-75
2022/09/08 11:32:23;;;;;;;3.13;1.13;;;14.50;70.30;;;;;;5044081;28;20200;-73
2022/09/08 11:35:25;;;;;;;1.73;1.23;;;14.50;70.10;;;;;;5026937;28;20163;-72
2022/09/08 11:38:00;;;;;;;1.25;0.95;;;14.50;69.50;;;;;;5046827;28;20512;-81
2022/09/08 11:40:25;;;;;;;2.38;0.82;;;14.40;68.80;;;;;;5033322;28;20033;-81
2022/09/08 11:43:21;;;;;;;1.58;0.93;;;14.50;68.90;;;;;;5033004;28;20446;-81
2022/09/08 11:46:24;;;;;;;1.20;0.70;;;14.40;68.10;;;;;;4995957;28;20113;-80
2022/09/08 11:49:04;;;;;;;0.77;0.70;;;14.40;68.10;;;;;;5029918;28;20124;-80
2022/09/08 11:52:03;;;;;;;0.93;0.65;;;14.50;68.80;;;;;;5039443;28;20049;-79
2022/09/08 11:54:50;;;;;;;2.67;0.80;;;14.50;68.70;;;;;;5008403;28;20499;-79
2022/09/08 11:57:30;;;;;;;1.10;1.00;;;14.50;68.30;;;;;;5044232;28;20107;-79
2022/09/08 12:00:15;;;;;;;0.85;0.75;;;14.50;67.90;;;;;;5027112;28;20119;-80
2022/09/08 12:02:59;;;;;;;3.05;0.70;;;14.50;68.20;;;;;;5050812;28;20064;-77
2022/09/08 12:05:52;;;;;;;0.70;0.70;;;14.50;67.80;;;;;;5034183;28;20083;-77
2022/09/08 12:08:43;;;;;;;0.75;0.75;;;14.40;66.50;;;;;;5050145;28;20057;-79
2022/09/08 12:11:24;;;;;;;0.85;0.85;;;14.40;66.60;;;;;;5029585;28;20115;-77
2022/09/08 12:14:04;;;;;;;0.90;0.63;;;14.40;66.90;;;;;;5013362;28;20523;-78
2022/09/08 12:16:36;;;;;;;1.58;0.90;;;14.50;67.30;;;;;;5014585;28;20140;-77
2022/09/08 12:19:43;;;;;;;0.93;0.60;;;14.50;67.70;;;;;;5032729;28;20199;-81
2022/09/08 12:22:57;;;;;;;1.75;1.05;;;14.50;67.40;;;;;;5030407;28;20041;-80
2022/09/08 12:25:52;;;;;;;2.00;0.82;;;14.60;67.50;;;;;;5033115;28;20092;-79
2022/09/08 12:28:36;;;;;;;0.73;0.73;;;14.60;67.00;;;;;;5042637;28;20036;-80
2022/09/08 12:31:35;;;;;;;1.48;0.73;;;14.50;65.50;;;;;;5072217;28;20021;-80
2022/09/08 12:34:20;;;;;;;1.27;0.80;;;14.50;65.50;;;;;;5050088;28;20039;-82
2022/09/08 12:36:53;;;;;;;1.10;0.60;;;14.50;66.10;;;;;;5034068;28;20044;-83
2022/09/08 12:39:43;;;;;;;0.70;0.70;;;14.60;67.20;;;;;;5030763;28;20037;-82
2022/09/08 12:42:35;;;;;;;2.00;0.60;;;14.60;66.00;;;;;;5029882;28;20055;-84
2022/09/08 12:47:48;;;;;;;;;;;14.50;64.70;;;;;;5109646;27;20114;-86
2022/09/08 12:50:20;;;;;;;2.08;1.00;;;14.60;68.50;;;;;;5024200;28;19917;-79
2022/09/08 12:53:14;;;;;;;5.55;0.98;;;14.90;69.60;;;;;;5043758;28;20428;-77
2022/09/08 12:55:52;;;;;;;1.60;0.77;;;15.10;69.90;;;;;;5034008;28;20037;-85
2022/09/08 12:58:32;;;;;;;1.48;1.00;;;15.30;69.70;;;;;;5027452;28;20033;-75
2022/09/08 13:01:15;;;;;;;2.17;1.00;;;15.40;69.50;;;;;;5017662;28;20369;-74
2022/09/08 13:03:43;;;;;;;1.95;0.77;;;15.40;69.10;;;;;;5017929;28;20033;-76
2022/09/08 13:06:34;;;;;;;2.17;0.63;;;15.40;68.40;;;;;;5017189;28;20041;-75
2022/09/08 13:09:24;;;;;;;1.67;0.30;;;15.40;67.10;;;;;;5049459;28;20469;-75
2022/09/08 13:12:18;;;;;;;0.68;0.43;;;15.10;66.40;;;;;;5015778;28;20133;-76
2022/09/08 13:14:57;;;;;;;1.50;0.65;;;14.90;67.00;;;;;;5016596;28;20033;-75
2022/09/08 13:17:46;;;;;;;0.45;0.45;;;14.70;68.20;;;;;;5017283;28;20052;-75
2022/09/08 13:20:33;;;;;;;2.25;0.50;;;14.70;69.20;;;;;;5047810;28;20045;-75
2022/09/08 13:23:25;;;;;;;0.98;0.32;;;14.70;69.80;;;;;;5048231;28;20095;-75
2022/09/08 13:26:26;;;;;;;0.88;0.30;;;14.70;70.00;;;;;;5008582;28;20099;-75
2022/09/08 13:29:14;;;;;;;1.50;0.40;;;14.80;70.20;;;;;;5013558;28;20504;-75
2022/09/08 13:31:56;;;;;;;4.47;0.60;;;14.70;70.70;;;;;;5019304;28;20040;-75
2022/09/08 13:34:40;;;;;;;0.47;0.28;;;14.80;70.70;;;;;;5017898;28;20033;-75
2022/09/08 13:37:24;;;;;;;0.85;0.40;;;14.80;70.80;;;;;;5020391;28;20140;-75
2022/09/08 13:40:30;;;;;;;2.22;0.35;;;14.80;71.30;;;;;;5018393;28;20084;-76
2022/09/08 13:43:11;;;;;;;0.30;0.30;;;14.80;71.50;;;;;;5020037;28;20038;-76